Highway 40, Nevada
Current Conditions -  °F | °C
As of 1:56 PM on Thursday 18 Dec 2014 (Local Time) from KWMC Reporting Station
Broken Clouds Broken Clouds  
Wind Chill: 42°   Ceiling: 3900
Heat Index: 45°   Visibility: 10mi
Dew Point: 30°   Wind: 6mph
Humidity: 56%   Direction: 190°S
Pressure: 30.09"   Gusts: NA
Location:  41.5215°N, 118.961°W
Report Text: KWMC 182156Z AUTO 19005KT 10SM BKN039 07/M01 A3009 RMK AO2 SLP195 T00721011
Loading
Personal Weather Stations






























Interactive Weather Map New forecast layout! Learn more

10-Day Weather Forecast

Advertisements
Track Severe Weather on mobile